sensor_id;sensor_type;location;lat;lon;timestamp;P1;durP1;ratioP1;P2;durP2;ratioP2
82990;SDS011;72806;50.832;4.864;2024-02-21T00:00:52;20.38;;;9.68;;
82990;SDS011;72806;50.832;4.864;2024-02-21T00:03:20;18.80;;;10.13;;
82990;SDS011;72806;50.832;4.864;2024-02-21T00:05:47;20.40;;;9.88;;
82990;SDS011;72806;50.832;4.864;2024-02-21T00:08:14;22.48;;;10.18;;
82990;SDS011;72806;50.832;4.864;2024-02-21T00:10:42;20.60;;;8.65;;
82990;SDS011;72806;50.832;4.864;2024-02-21T00:13:10;17.70;;;9.52;;
82990;SDS011;72806;50.832;4.864;2024-02-21T00:15:37;18.05;;;8.40;;
82990;SDS011;72806;50.832;4.864;2024-02-21T00:18:04;20.95;;;8.25;;
82990;SDS011;72806;50.832;4.864;2024-02-21T00:20:31;20.00;;;9.45;;
82990;SDS011;72806;50.832;4.864;2024-02-21T00:22:59;21.58;;;11.60;;
82990;SDS011;72806;50.832;4.864;2024-02-21T00:25:26;18.35;;;8.95;;
82990;SDS011;72806;50.832;4.864;2024-02-21T00:27:54;23.25;;;9.48;;
82990;SDS011;72806;50.832;4.864;2024-02-21T00:30:22;16.88;;;9.10;;
82990;SDS011;72806;50.832;4.864;2024-02-21T00:32:49;19.17;;;9.23;;
82990;SDS011;72806;50.832;4.864;2024-02-21T00:35:16;15.25;;;8.25;;
82990;SDS011;72806;50.832;4.864;2024-02-21T00:37:44;23.60;;;9.70;;
82990;SDS011;72806;50.832;4.864;2024-02-21T00:40:11;18.20;;;9.80;;
82990;SDS011;72806;50.832;4.864;2024-02-21T00:42:41;20.00;;;9.13;;
82990;SDS011;72806;50.832;4.864;2024-02-21T00:45:10;16.55;;;8.40;;
82990;SDS011;72806;50.832;4.864;2024-02-21T00:47:37;19.50;;;8.18;;
82990;SDS011;72806;50.832;4.864;2024-02-21T00:50:05;21.27;;;8.63;;
82990;SDS011;72806;50.832;4.864;2024-02-21T00:52:32;23.63;;;9.57;;
82990;SDS011;72806;50.832;4.864;2024-02-21T00:54:59;19.58;;;9.07;;
82990;SDS011;72806;50.832;4.864;2024-02-21T00:57:27;18.55;;;8.85;;
82990;SDS011;72806;50.832;4.864;2024-02-21T00:59:54;20.23;;;8.82;;
82990;SDS011;72806;50.832;4.864;2024-02-21T01:02:22;21.48;;;8.60;;
82990;SDS011;72806;50.832;4.864;2024-02-21T01:04:50;26.55;;;12.07;;
82990;SDS011;72806;50.832;4.864;2024-02-21T01:07:17;24.50;;;8.73;;
82990;SDS011;72806;50.832;4.864;2024-02-21T01:09:44;23.23;;;8.10;;
82990;SDS011;72806;50.832;4.864;2024-02-21T01:12:11;15.95;;;7.22;;
82990;SDS011;72806;50.832;4.864;2024-02-21T01:14:38;21.77;;;8.55;;
82990;SDS011;72806;50.832;4.864;2024-02-21T01:17:06;17.08;;;7.65;;
82990;SDS011;72806;50.832;4.864;2024-02-21T01:19:34;17.33;;;7.72;;
82990;SDS011;72806;50.832;4.864;2024-02-21T01:22:01;16.98;;;8.10;;
82990;SDS011;72806;50.832;4.864;2024-02-21T01:24:29;19.80;;;8.10;;
82990;SDS011;72806;50.832;4.864;2024-02-21T01:26:56;18.17;;;8.40;;
82990;SDS011;72806;50.832;4.864;2024-02-21T01:29:23;20.17;;;8.45;;
82990;SDS011;72806;50.832;4.864;2024-02-21T01:31:50;18.10;;;8.40;;
82990;SDS011;72806;50.832;4.864;2024-02-21T01:34:17;19.58;;;9.35;;
82990;SDS011;72806;50.832;4.864;2024-02-21T01:36:46;17.10;;;8.57;;
82990;SDS011;72806;50.832;4.864;2024-02-21T01:39:13;22.95;;;9.27;;
82990;SDS011;72806;50.832;4.864;2024-02-21T01:41:41;16.10;;;8.73;;
82990;SDS011;72806;50.832;4.864;2024-02-21T01:44:08;20.83;;;9.15;;
82990;SDS011;72806;50.832;4.864;2024-02-21T01:46:35;13.27;;;8.18;;
82990;SDS011;72806;50.832;4.864;2024-02-21T01:49:03;22.63;;;8.38;;
82990;SDS011;72806;50.832;4.864;2024-02-21T01:51:30;21.90;;;10.20;;
82990;SDS011;72806;50.832;4.864;2024-02-21T01:53:59;20.15;;;8.45;;
82990;SDS011;72806;50.832;4.864;2024-02-21T01:56:26;20.33;;;9.07;;
82990;SDS011;72806;50.832;4.864;2024-02-21T01:58:54;20.33;;;9.40;;
82990;SDS011;72806;50.832;4.864;2024-02-21T02:01:22;22.20;;;9.00;;
82990;SDS011;72806;50.832;4.864;2024-02-21T02:03:49;19.38;;;8.60;;
82990;SDS011;72806;50.832;4.864;2024-02-21T02:06:17;19.83;;;9.75;;
82990;SDS011;72806;50.832;4.864;2024-02-21T02:08:45;17.20;;;8.10;;
82990;SDS011;72806;50.832;4.864;2024-02-21T02:11:14;16.65;;;8.43;;
82990;SDS011;72806;50.832;4.864;2024-02-21T02:13:41;20.83;;;9.18;;
82990;SDS011;72806;50.832;4.864;2024-02-21T02:16:08;19.50;;;8.13;;
82990;SDS011;72806;50.832;4.864;2024-02-21T02:18:36;15.25;;;8.57;;
82990;SDS011;72806;50.832;4.864;2024-02-21T02:21:03;22.88;;;9.07;;
82990;SDS011;72806;50.832;4.864;2024-02-21T02:23:33;17.17;;;9.07;;
82990;SDS011;72806;50.832;4.864;2024-02-21T02:26:00;19.33;;;8.43;;
82990;SDS011;72806;50.832;4.864;2024-02-21T02:28:27;17.15;;;7.97;;
82990;SDS011;72806;50.832;4.864;2024-02-21T02:30:54;18.42;;;8.25;;
82990;SDS011;72806;50.832;4.864;2024-02-21T02:33:22;19.92;;;8.65;;
82990;SDS011;72806;50.832;4.864;2024-02-21T02:35:49;14.82;;;8.48;;
82990;SDS011;72806;50.832;4.864;2024-02-21T02:38:16;23.90;;;8.80;;
82990;SDS011;72806;50.832;4.864;2024-02-21T02:40:45;15.95;;;8.02;;
82990;SDS011;72806;50.832;4.864;2024-02-21T02:43:12;16.75;;;8.43;;
82990;SDS011;72806;50.832;4.864;2024-02-21T02:45:39;16.25;;;8.82;;
82990;SDS011;72806;50.832;4.864;2024-02-21T02:48:07;20.25;;;8.48;;
82990;SDS011;72806;50.832;4.864;2024-02-21T02:50:34;23.52;;;8.32;;
82990;SDS011;72806;50.832;4.864;2024-02-21T02:53:01;15.60;;;9.77;;
82990;SDS011;72806;50.832;4.864;2024-02-21T02:55:28;18.67;;;8.23;;
82990;SDS011;72806;50.832;4.864;2024-02-21T02:57:57;13.48;;;8.00;;
82990;SDS011;72806;50.832;4.864;2024-02-21T03:00:24;16.63;;;9.25;;
82990;SDS011;72806;50.832;4.864;2024-02-21T03:02:52;23.17;;;8.80;;
82990;SDS011;72806;50.832;4.864;2024-02-21T03:05:20;16.50;;;7.75;;
82990;SDS011;72806;50.832;4.864;2024-02-21T03:07:47;19.55;;;8.27;;
82990;SDS011;72806;50.832;4.864;2024-02-21T03:10:15;17.60;;;7.18;;
82990;SDS011;72806;50.832;4.864;2024-02-21T03:12:42;15.48;;;7.57;;
82990;SDS011;72806;50.832;4.864;2024-02-21T03:15:12;18.00;;;7.95;;
82990;SDS011;72806;50.832;4.864;2024-02-21T03:17:39;15.75;;;7.47;;
82990;SDS011;72806;50.832;4.864;2024-02-21T03:20:07;18.92;;;7.93;;
82990;SDS011;72806;50.832;4.864;2024-02-21T03:22:35;12.98;;;6.82;;
82990;SDS011;72806;50.832;4.864;2024-02-21T03:25:02;20.98;;;7.85;;
82990;SDS011;72806;50.832;4.864;2024-02-21T03:27:29;14.45;;;7.93;;
82990;SDS011;72806;50.832;4.864;2024-02-21T03:29:57;21.65;;;8.27;;
82990;SDS011;72806;50.832;4.864;2024-02-21T03:32:25;17.63;;;7.35;;
82990;SDS011;72806;50.832;4.864;2024-02-21T03:34:53;13.00;;;7.28;;
82990;SDS011;72806;50.832;4.864;2024-02-21T03:37:20;17.30;;;7.30;;
82990;SDS011;72806;50.832;4.864;2024-02-21T03:39:48;17.02;;;9.48;;
82990;SDS011;72806;50.832;4.864;2024-02-21T03:42:15;18.63;;;7.93;;
82990;SDS011;72806;50.832;4.864;2024-02-21T03:44:42;15.48;;;8.57;;
82990;SDS011;72806;50.832;4.864;2024-02-21T03:47:09;16.52;;;7.30;;
82990;SDS011;72806;50.832;4.864;2024-02-21T03:49:38;15.13;;;8.15;;
82990;SDS011;72806;50.832;4.864;2024-02-21T03:52:05;16.25;;;8.35;;
82990;SDS011;72806;50.832;4.864;2024-02-21T03:54:33;16.60;;;8.52;;
82990;SDS011;72806;50.832;4.864;2024-02-21T03:57:01;20.35;;;8.07;;
82990;SDS011;72806;50.832;4.864;2024-02-21T03:59:28;16.27;;;7.97;;
82990;SDS011;72806;50.832;4.864;2024-02-21T04:01:55;13.23;;;7.32;;
82990;SDS011;72806;50.832;4.864;2024-02-21T04:04:23;15.30;;;7.28;;
82990;SDS011;72806;50.832;4.864;2024-02-21T04:06:52;17.45;;;8.23;;
82990;SDS011;72806;50.832;4.864;2024-02-21T04:09:19;16.52;;;8.13;;
82990;SDS011;72806;50.832;4.864;2024-02-21T04:11:47;17.00;;;7.68;;
82990;SDS011;72806;50.832;4.864;2024-02-21T04:14:14;19.23;;;8.57;;
82990;SDS011;72806;50.832;4.864;2024-02-21T04:16:41;18.27;;;9.18;;
82990;SDS011;72806;50.832;4.864;2024-02-21T04:19:08;17.88;;;8.13;;
82990;SDS011;72806;50.832;4.864;2024-02-21T04:21:35;19.77;;;8.02;;
82990;SDS011;72806;50.832;4.864;2024-02-21T04:24:04;18.17;;;7.25;;
82990;SDS011;72806;50.832;4.864;2024-02-21T04:26:31;16.95;;;8.43;;
82990;SDS011;72806;50.832;4.864;2024-02-21T04:28:59;17.80;;;7.78;;
82990;SDS011;72806;50.832;4.864;2024-02-21T04:31:26;18.98;;;8.68;;
82990;SDS011;72806;50.832;4.864;2024-02-21T04:33:54;14.27;;;7.57;;
82990;SDS011;72806;50.832;4.864;2024-02-21T04:36:22;19.35;;;8.73;;
82990;SDS011;72806;50.832;4.864;2024-02-21T04:38:49;12.88;;;7.85;;
82990;SDS011;72806;50.832;4.864;2024-02-21T04:41:18;18.25;;;8.07;;
82990;SDS011;72806;50.832;4.864;2024-02-21T04:43:46;20.42;;;8.00;;
82990;SDS011;72806;50.832;4.864;2024-02-21T04:46:13;24.05;;;8.25;;
82990;SDS011;72806;50.832;4.864;2024-02-21T04:48:40;15.60;;;8.02;;
82990;SDS011;72806;50.832;4.864;2024-02-21T04:51:07;20.17;;;9.20;;
82990;SDS011;72806;50.832;4.864;2024-02-21T04:53:35;14.35;;;8.02;;
82990;SDS011;72806;50.832;4.864;2024-02-21T04:56:02;19.45;;;8.93;;
82990;SDS011;72806;50.832;4.864;2024-02-21T04:58:31;15.48;;;8.90;;
82990;SDS011;72806;50.832;4.864;2024-02-21T05:00:58;14.55;;;8.23;;
82990;SDS011;72806;50.832;4.864;2024-02-21T05:03:25;15.07;;;9.07;;
82990;SDS011;72806;50.832;4.864;2024-02-21T05:05:53;19.23;;;8.45;;
82990;SDS011;72806;50.832;4.864;2024-02-21T05:08:20;13.43;;;8.10;;
82990;SDS011;72806;50.832;4.864;2024-02-21T05:10:47;16.77;;;8.52;;
82990;SDS011;72806;50.832;4.864;2024-02-21T05:13:14;13.25;;;8.07;;
82990;SDS011;72806;50.832;4.864;2024-02-21T05:15:43;12.20;;;6.47;;
82990;SDS011;72806;50.832;4.864;2024-02-21T05:18:11;17.08;;;7.97;;
82990;SDS011;72806;50.832;4.864;2024-02-21T05:20:38;18.27;;;7.63;;
82990;SDS011;72806;50.832;4.864;2024-02-21T05:23:05;16.92;;;8.73;;
82990;SDS011;72806;50.832;4.864;2024-02-21T05:25:32;14.30;;;7.35;;
82990;SDS011;72806;50.832;4.864;2024-02-21T05:27:59;22.35;;;8.13;;
82990;SDS011;72806;50.832;4.864;2024-02-21T05:30:28;12.73;;;7.32;;
82990;SDS011;72806;50.832;4.864;2024-02-21T05:32:57;21.38;;;9.75;;
82990;SDS011;72806;50.832;4.864;2024-02-21T05:35:27;10.90;;;6.82;;
82990;SDS011;72806;50.832;4.864;2024-02-21T05:37:54;15.93;;;7.68;;
82990;SDS011;72806;50.832;4.864;2024-02-21T05:40:21;12.55;;;6.53;;
82990;SDS011;72806;50.832;4.864;2024-02-21T05:42:48;12.40;;;7.10;;
82990;SDS011;72806;50.832;4.864;2024-02-21T05:45:16;15.88;;;7.20;;
82990;SDS011;72806;50.832;4.864;2024-02-21T05:47:44;12.30;;;7.13;;
82990;SDS011;72806;50.832;4.864;2024-02-21T05:50:13;13.73;;;7.57;;
82990;SDS011;72806;50.832;4.864;2024-02-21T05:52:40;10.57;;;6.30;;
82990;SDS011;72806;50.832;4.864;2024-02-21T05:55:08;12.02;;;7.65;;
82990;SDS011;72806;50.832;4.864;2024-02-21T05:57:35;12.10;;;7.75;;
82990;SDS011;72806;50.832;4.864;2024-02-21T06:00:03;13.05;;;6.75;;
82990;SDS011;72806;50.832;4.864;2024-02-21T06:02:31;14.32;;;7.82;;
82990;SDS011;72806;50.832;4.864;2024-02-21T06:04:58;17.83;;;8.00;;
82990;SDS011;72806;50.832;4.864;2024-02-21T06:07:27;13.43;;;6.95;;
82990;SDS011;72806;50.832;4.864;2024-02-21T06:09:54;11.52;;;7.55;;
82990;SDS011;72806;50.832;4.864;2024-02-21T06:12:21;10.38;;;6.88;;
82990;SDS011;72806;50.832;4.864;2024-02-21T06:14:48;13.20;;;6.28;;
82990;SDS011;72806;50.832;4.864;2024-02-21T06:17:16;15.70;;;7.75;;
82990;SDS011;72806;50.832;4.864;2024-02-21T06:19:43;10.43;;;6.72;;
82990;SDS011;72806;50.832;4.864;2024-02-21T06:22:10;11.18;;;7.05;;
82990;SDS011;72806;50.832;4.864;2024-02-21T06:24:39;13.38;;;7.47;;
82990;SDS011;72806;50.832;4.864;2024-02-21T06:27:06;11.35;;;6.78;;
82990;SDS011;72806;50.832;4.864;2024-02-21T06:29:34;12.77;;;7.22;;
82990;SDS011;72806;50.832;4.864;2024-02-21T06:32:01;13.90;;;8.00;;
82990;SDS011;72806;50.832;4.864;2024-02-21T06:34:29;12.15;;;6.72;;
82990;SDS011;72806;50.832;4.864;2024-02-21T06:36:56;13.38;;;7.93;;
82990;SDS011;72806;50.832;4.864;2024-02-21T06:39:23;15.77;;;7.30;;
82990;SDS011;72806;50.832;4.864;2024-02-21T06:41:52;15.45;;;7.75;;
82990;SDS011;72806;50.832;4.864;2024-02-21T06:44:20;16.92;;;7.78;;
82990;SDS011;72806;50.832;4.864;2024-02-21T06:46:48;14.70;;;7.20;;
82990;SDS011;72806;50.832;4.864;2024-02-21T06:49:15;12.05;;;7.07;;
82990;SDS011;72806;50.832;4.864;2024-02-21T06:51:42;14.27;;;7.72;;
82990;SDS011;72806;50.832;4.864;2024-02-21T06:54:09;14.48;;;6.93;;
82990;SDS011;72806;50.832;4.864;2024-02-21T06:56:37;13.77;;;6.97;;
82990;SDS011;72806;50.832;4.864;2024-02-21T06:59:05;12.18;;;7.53;;
82990;SDS011;72806;50.832;4.864;2024-02-21T07:01:32;16.13;;;7.70;;
82990;SDS011;72806;50.832;4.864;2024-02-21T07:04:00;16.08;;;7.65;;
82990;SDS011;72806;50.832;4.864;2024-02-21T07:06:27;13.82;;;7.07;;
82990;SDS011;72806;50.832;4.864;2024-02-21T07:08:55;14.90;;;7.47;;
82990;SDS011;72806;50.832;4.864;2024-02-21T07:11:23;13.93;;;7.47;;
82990;SDS011;72806;50.832;4.864;2024-02-21T07:13:51;10.63;;;6.80;;
82990;SDS011;72806;50.832;4.864;2024-02-21T07:16:20;11.93;;;7.35;;
82990;SDS011;72806;50.832;4.864;2024-02-21T07:18:47;12.45;;;7.90;;
82990;SDS011;72806;50.832;4.864;2024-02-21T07:21:15;19.60;;;8.18;;
82990;SDS011;72806;50.832;4.864;2024-02-21T07:23:42;16.77;;;8.82;;
82990;SDS011;72806;50.832;4.864;2024-02-21T07:26:09;12.20;;;7.90;;
82990;SDS011;72806;50.832;4.864;2024-02-21T07:28:36;15.18;;;7.82;;
82990;SDS011;72806;50.832;4.864;2024-02-21T07:31:03;16.00;;;8.18;;
82990;SDS011;72806;50.832;4.864;2024-02-21T07:33:32;13.70;;;7.72;;
82990;SDS011;72806;50.832;4.864;2024-02-21T07:36:00;14.95;;;9.25;;
82990;SDS011;72806;50.832;4.864;2024-02-21T07:38:27;13.38;;;8.98;;
82990;SDS011;72806;50.832;4.864;2024-02-21T07:40:55;14.18;;;8.30;;
82990;SDS011;72806;50.832;4.864;2024-02-21T07:43:22;16.55;;;8.80;;
82990;SDS011;72806;50.832;4.864;2024-02-21T07:45:51;12.18;;;7.75;;
82990;SDS011;72806;50.832;4.864;2024-02-21T07:48:19;20.98;;;7.35;;
82990;SDS011;72806;50.832;4.864;2024-02-21T07:50:50;16.40;;;7.90;;
82990;SDS011;72806;50.832;4.864;2024-02-21T07:53:19;13.32;;;7.07;;
82990;SDS011;72806;50.832;4.864;2024-02-21T07:55:47;15.18;;;7.57;;
82990;SDS011;72806;50.832;4.864;2024-02-21T07:58:14;14.70;;;7.18;;
82990;SDS011;72806;50.832;4.864;2024-02-21T08:00:41;11.25;;;6.43;;
82990;SDS011;72806;50.832;4.864;2024-02-21T08:03:09;15.63;;;7.50;;
82990;SDS011;72806;50.832;4.864;2024-02-21T08:05:36;10.93;;;5.80;;
82990;SDS011;72806;50.832;4.864;2024-02-21T08:08:05;14.65;;;7.32;;
82990;SDS011;72806;50.832;4.864;2024-02-21T08:10:33;9.73;;;5.88;;
82990;SDS011;72806;50.832;4.864;2024-02-21T08:13:00;12.27;;;5.13;;
82990;SDS011;72806;50.832;4.864;2024-02-21T08:15:27;10.32;;;5.85;;
82990;SDS011;72806;50.832;4.864;2024-02-21T08:17:54;11.20;;;5.03;;
82990;SDS011;72806;50.832;4.864;2024-02-21T08:20:24;9.65;;;5.13;;
82990;SDS011;72806;50.832;4.864;2024-02-21T08:22:52;13.85;;;6.03;;
82990;SDS011;72806;50.832;4.864;2024-02-21T08:25:22;12.45;;;4.70;;
82990;SDS011;72806;50.832;4.864;2024-02-21T08:27:49;9.32;;;5.63;;
82990;SDS011;72806;50.832;4.864;2024-02-21T08:30:17;8.20;;;4.70;;
82990;SDS011;72806;50.832;4.864;2024-02-21T08:32:45;7.97;;;4.43;;
82990;SDS011;72806;50.832;4.864;2024-02-21T08:35:12;11.00;;;4.35;;
82990;SDS011;72806;50.832;4.864;2024-02-21T08:37:40;7.18;;;4.72;;
82990;SDS011;72806;50.832;4.864;2024-02-21T08:40:08;7.60;;;4.72;;
82990;SDS011;72806;50.832;4.864;2024-02-21T08:42:37;8.18;;;4.65;;
82990;SDS011;72806;50.832;4.864;2024-02-21T08:45:06;9.68;;;4.22;;
82990;SDS011;72806;50.832;4.864;2024-02-21T08:47:33;7.40;;;4.30;;
82990;SDS011;72806;50.832;4.864;2024-02-21T08:50:01;12.48;;;4.05;;
82990;SDS011;72806;50.832;4.864;2024-02-21T08:52:31;6.65;;;3.72;;
82990;SDS011;72806;50.832;4.864;2024-02-21T08:54:58;11.25;;;4.40;;
82990;SDS011;72806;50.832;4.864;2024-02-21T08:57:25;8.35;;;3.90;;
82990;SDS011;72806;50.832;4.864;2024-02-21T08:59:54;9.57;;;3.97;;
82990;SDS011;72806;50.832;4.864;2024-02-21T09:02:21;6.88;;;3.80;;
82990;SDS011;72806;50.832;4.864;2024-02-21T09:04:49;9.07;;;4.85;;
82990;SDS011;72806;50.832;4.864;2024-02-21T09:07:16;8.50;;;4.38;;
82990;SDS011;72806;50.832;4.864;2024-02-21T09:09:44;8.90;;;3.40;;
82990;SDS011;72806;50.832;4.864;2024-02-21T09:12:11;8.77;;;4.45;;
82990;SDS011;72806;50.832;4.864;2024-02-21T09:14:41;7.55;;;3.75;;
82990;SDS011;72806;50.832;4.864;2024-02-21T09:17:09;8.02;;;3.65;;
82990;SDS011;72806;50.832;4.864;2024-02-21T09:19:37;8.30;;;4.10;;
82990;SDS011;72806;50.832;4.864;2024-02-21T09:22:04;6.57;;;3.38;;
82990;SDS011;72806;50.832;4.864;2024-02-21T09:24:32;12.45;;;4.13;;
82990;SDS011;72806;50.832;4.864;2024-02-21T09:26:59;6.55;;;3.75;;
82990;SDS011;72806;50.832;4.864;2024-02-21T09:29:26;8.90;;;3.90;;
82990;SDS011;72806;50.832;4.864;2024-02-21T09:31:53;5.40;;;3.67;;
82990;SDS011;72806;50.832;4.864;2024-02-21T09:34:22;6.57;;;3.55;;
82990;SDS011;72806;50.832;4.864;2024-02-21T09:36:49;8.57;;;4.00;;
82990;SDS011;72806;50.832;4.864;2024-02-21T09:39:16;8.73;;;4.30;;
82990;SDS011;72806;50.832;4.864;2024-02-21T09:41:45;7.95;;;3.72;;
82990;SDS011;72806;50.832;4.864;2024-02-21T09:44:12;10.13;;;4.07;;
82990;SDS011;72806;50.832;4.864;2024-02-21T09:46:43;8.02;;;4.32;;
82990;SDS011;72806;50.832;4.864;2024-02-21T09:49:14;10.88;;;4.07;;
82990;SDS011;72806;50.832;4.864;2024-02-21T09:51:46;9.77;;;3.97;;
82990;SDS011;72806;50.832;4.864;2024-02-21T09:54:14;6.70;;;3.95;;
82990;SDS011;72806;50.832;4.864;2024-02-21T09:56:44;12.73;;;3.97;;
82990;SDS011;72806;50.832;4.864;2024-02-21T09:59:12;17.13;;;4.30;;
82990;SDS011;72806;50.832;4.864;2024-02-21T10:01:39;7.72;;;3.45;;
82990;SDS011;72806;50.832;4.864;2024-02-21T10:04:07;6.57;;;3.78;;
82990;SDS011;72806;50.832;4.864;2024-02-21T10:06:34;10.50;;;3.42;;
82990;SDS011;72806;50.832;4.864;2024-02-21T10:09:03;5.78;;;3.65;;
82990;SDS011;72806;50.832;4.864;2024-02-21T10:11:30;6.53;;;3.58;;
82990;SDS011;72806;50.832;4.864;2024-02-21T10:14:02;9.20;;;3.53;;
82990;SDS011;72806;50.832;4.864;2024-02-21T10:16:31;4.82;;;3.20;;
82990;SDS011;72806;50.832;4.864;2024-02-21T10:18:58;11.25;;;3.83;;
82990;SDS011;72806;50.832;4.864;2024-02-21T10:21:25;5.15;;;2.85;;
82990;SDS011;72806;50.832;4.864;2024-02-21T10:23:53;7.55;;;3.22;;
82990;SDS011;72806;50.832;4.864;2024-02-21T10:26:22;7.28;;;3.08;;
82990;SDS011;72806;50.832;4.864;2024-02-21T10:28:49;7.10;;;2.90;;
82990;SDS011;72806;50.832;4.864;2024-02-21T10:31:21;7.30;;;3.35;;
82990;SDS011;72806;50.832;4.864;2024-02-21T10:33:53;6.63;;;2.83;;
82990;SDS011;72806;50.832;4.864;2024-02-21T10:36:21;8.02;;;3.35;;
82990;SDS011;72806;50.832;4.864;2024-02-21T10:38:49;5.60;;;3.10;;
82990;SDS011;72806;50.832;4.864;2024-02-21T10:41:16;5.18;;;2.63;;
82990;SDS011;72806;50.832;4.864;2024-02-21T10:43:49;10.00;;;3.33;;
82990;SDS011;72806;50.832;4.864;2024-02-21T10:46:18;12.05;;;3.72;;
82990;SDS011;72806;50.832;4.864;2024-02-21T10:48:45;9.10;;;3.60;;
82990;SDS011;72806;50.832;4.864;2024-02-21T10:51:16;5.05;;;2.78;;
82990;SDS011;72806;50.832;4.864;2024-02-21T10:53:45;6.88;;;3.10;;
82990;SDS011;72806;50.832;4.864;2024-02-21T10:56:16;9.48;;;3.30;;
82990;SDS011;72806;50.832;4.864;2024-02-21T10:58:43;8.98;;;3.15;;
82990;SDS011;72806;50.832;4.864;2024-02-21T11:01:13;6.22;;;3.00;;
82990;SDS011;72806;50.832;4.864;2024-02-21T11:03:41;6.85;;;2.78;;
82990;SDS011;72806;50.832;4.864;2024-02-21T11:06:09;5.60;;;2.60;;
82990;SDS011;72806;50.832;4.864;2024-02-21T11:08:36;6.22;;;2.75;;
82990;SDS011;72806;50.832;4.864;2024-02-21T11:11:04;6.22;;;3.08;;
82990;SDS011;72806;50.832;4.864;2024-02-21T11:13:32;9.35;;;3.10;;
82990;SDS011;72806;50.832;4.864;2024-02-21T11:16:06;7.00;;;2.33;;
82990;SDS011;72806;50.832;4.864;2024-02-21T11:18:36;6.38;;;2.45;;
82990;SDS011;72806;50.832;4.864;2024-02-21T11:21:03;8.10;;;2.72;;
82990;SDS011;72806;50.832;4.864;2024-02-21T11:23:31;9.05;;;3.30;;
82990;SDS011;72806;50.832;4.864;2024-02-21T11:26:05;8.25;;;2.95;;
82990;SDS011;72806;50.832;4.864;2024-02-21T11:28:32;5.88;;;2.35;;
82990;SDS011;72806;50.832;4.864;2024-02-21T11:31:06;7.10;;;2.60;;
82990;SDS011;72806;50.832;4.864;2024-02-21T11:33:34;5.35;;;2.10;;
82990;SDS011;72806;50.832;4.864;2024-02-21T11:36:03;7.07;;;2.63;;
82990;SDS011;72806;50.832;4.864;2024-02-21T11:38:30;4.28;;;2.03;;
82990;SDS011;72806;50.832;4.864;2024-02-21T11:40:57;7.70;;;2.40;;
82990;SDS011;72806;50.832;4.864;2024-02-21T11:43:25;6.07;;;2.58;;
82990;SDS011;72806;50.832;4.864;2024-02-21T11:45:58;5.35;;;2.28;;
82990;SDS011;72806;50.832;4.864;2024-02-21T11:48:25;5.60;;;2.70;;
82990;SDS011;72806;50.832;4.864;2024-02-21T11:50:53;6.40;;;2.08;;
82990;SDS011;72806;50.832;4.864;2024-02-21T11:53:22;5.90;;;2.40;;
82990;SDS011;72806;50.832;4.864;2024-02-21T11:55:52;3.40;;;2.25;;
82990;SDS011;72806;50.832;4.864;2024-02-21T11:58:22;5.55;;;2.50;;
82990;SDS011;72806;50.832;4.864;2024-02-21T12:00:49;4.60;;;2.20;;
82990;SDS011;72806;50.832;4.864;2024-02-21T12:03:16;3.63;;;2.28;;
82990;SDS011;72806;50.832;4.864;2024-02-21T12:05:43;4.78;;;2.13;;
82990;SDS011;72806;50.832;4.864;2024-02-21T12:08:11;5.07;;;1.88;;
82990;SDS011;72806;50.832;4.864;2024-02-21T12:10:41;6.53;;;2.33;;
82990;SDS011;72806;50.832;4.864;2024-02-21T12:13:09;5.53;;;2.45;;
82990;SDS011;72806;50.832;4.864;2024-02-21T12:15:38;3.28;;;2.25;;
82990;SDS011;72806;50.832;4.864;2024-02-21T12:18:05;8.05;;;2.13;;
82990;SDS011;72806;50.832;4.864;2024-02-21T12:20:33;5.65;;;2.03;;
82990;SDS011;72806;50.832;4.864;2024-02-21T12:23:01;5.95;;;2.15;;
82990;SDS011;72806;50.832;4.864;2024-02-21T12:25:29;4.45;;;2.45;;
82990;SDS011;72806;50.832;4.864;2024-02-21T12:27:58;4.10;;;2.20;;
82990;SDS011;72806;50.832;4.864;2024-02-21T12:30:25;6.18;;;2.47;;
82990;SDS011;72806;50.832;4.864;2024-02-21T12:32:52;5.30;;;2.10;;
82990;SDS011;72806;50.832;4.864;2024-02-21T12:35:20;3.17;;;2.03;;
82990;SDS011;72806;50.832;4.864;2024-02-21T12:37:48;3.58;;;2.50;;
82990;SDS011;72806;50.832;4.864;2024-02-21T12:40:15;4.03;;;2.30;;
82990;SDS011;72806;50.832;4.864;2024-02-21T12:42:42;4.22;;;2.25;;
82990;SDS011;72806;50.832;4.864;2024-02-21T12:45:12;4.40;;;2.40;;
82990;SDS011;72806;50.832;4.864;2024-02-21T12:47:40;4.15;;;2.50;;
82990;SDS011;72806;50.832;4.864;2024-02-21T12:50:07;4.88;;;3.03;;
82990;SDS011;72806;50.832;4.864;2024-02-21T12:52:35;5.65;;;2.65;;
82990;SDS011;72806;50.832;4.864;2024-02-21T12:55:02;4.38;;;2.45;;
82990;SDS011;72806;50.832;4.864;2024-02-21T12:57:30;8.00;;;3.38;;
82990;SDS011;72806;50.832;4.864;2024-02-21T12:59:57;5.10;;;2.70;;
82990;SDS011;72806;50.832;4.864;2024-02-21T13:02:26;5.60;;;2.72;;
82990;SDS011;72806;50.832;4.864;2024-02-21T13:04:53;6.80;;;2.53;;
82990;SDS011;72806;50.832;4.864;2024-02-21T13:07:20;4.93;;;2.42;;
82990;SDS011;72806;50.832;4.864;2024-02-21T13:09:48;5.13;;;2.53;;
82990;SDS011;72806;50.832;4.864;2024-02-21T13:12:15;2.65;;;1.80;;
82990;SDS011;72806;50.832;4.864;2024-02-21T13:14:43;3.20;;;1.98;;
82990;SDS011;72806;50.832;4.864;2024-02-21T13:17:10;7.68;;;2.80;;
82990;SDS011;72806;50.832;4.864;2024-02-21T13:19:38;5.07;;;2.55;;
82990;SDS011;72806;50.832;4.864;2024-02-21T13:22:06;4.90;;;2.67;;
82990;SDS011;72806;50.832;4.864;2024-02-21T13:24:33;6.32;;;2.92;;
82990;SDS011;72806;50.832;4.864;2024-02-21T13:27:00;5.45;;;2.60;;
82990;SDS011;72806;50.832;4.864;2024-02-21T13:29:28;4.43;;;2.50;;
82990;SDS011;72806;50.832;4.864;2024-02-21T13:31:55;3.22;;;2.65;;
82990;SDS011;72806;50.832;4.864;2024-02-21T13:34:22;5.72;;;2.90;;
82990;SDS011;72806;50.832;4.864;2024-02-21T13:36:51;4.65;;;2.90;;
82990;SDS011;72806;50.832;4.864;2024-02-21T13:39:18;9.57;;;3.42;;
82990;SDS011;72806;50.832;4.864;2024-02-21T13:41:46;6.05;;;2.60;;
82990;SDS011;72806;50.832;4.864;2024-02-21T13:44:13;4.50;;;2.40;;
82990;SDS011;72806;50.832;4.864;2024-02-21T13:46:40;7.22;;;2.78;;
82990;SDS011;72806;50.832;4.864;2024-02-21T13:49:07;7.18;;;2.60;;
82990;SDS011;72806;50.832;4.864;2024-02-21T13:51:35;6.97;;;2.92;;
82990;SDS011;72806;50.832;4.864;2024-02-21T13:54:04;5.22;;;2.80;;
82990;SDS011;72806;50.832;4.864;2024-02-21T13:56:34;6.72;;;2.75;;
82990;SDS011;72806;50.832;4.864;2024-02-21T13:59:01;5.00;;;2.70;;
82990;SDS011;72806;50.832;4.864;2024-02-21T14:01:29;10.98;;;2.72;;
82990;SDS011;72806;50.832;4.864;2024-02-21T14:03:58;6.82;;;2.42;;
82990;SDS011;72806;50.832;4.864;2024-02-21T14:06:25;3.45;;;2.78;;
82990;SDS011;72806;50.832;4.864;2024-02-21T14:08:52;4.93;;;2.53;;
82990;SDS011;72806;50.832;4.864;2024-02-21T14:11:21;4.53;;;2.40;;
82990;SDS011;72806;50.832;4.864;2024-02-21T14:13:48;5.43;;;2.65;;
82990;SDS011;72806;50.832;4.864;2024-02-21T14:16:16;5.95;;;2.97;;
82990;SDS011;72806;50.832;4.864;2024-02-21T14:18:43;4.65;;;2.60;;
82990;SDS011;72806;50.832;4.864;2024-02-21T14:21:11;5.85;;;3.05;;
82990;SDS011;72806;50.832;4.864;2024-02-21T14:23:38;7.13;;;2.45;;
82990;SDS011;72806;50.832;4.864;2024-02-21T14:26:05;6.25;;;3.13;;
82990;SDS011;72806;50.832;4.864;2024-02-21T14:28:34;6.47;;;2.70;;
82990;SDS011;72806;50.832;4.864;2024-02-21T14:31:01;4.60;;;3.05;;
82990;SDS011;72806;50.832;4.864;2024-02-21T14:33:31;3.92;;;2.55;;
82990;SDS011;72806;50.832;4.864;2024-02-21T14:35:58;6.13;;;2.55;;
82990;SDS011;72806;50.832;4.864;2024-02-21T14:38:26;7.10;;;2.70;;
82990;SDS011;72806;50.832;4.864;2024-02-21T14:40:53;7.68;;;2.85;;
82990;SDS011;72806;50.832;4.864;2024-02-21T14:43:21;7.63;;;3.15;;